Time;durP1;ratioP1;P1;durP2;ratioP2;P2;SDS_P1;SDS_P2;PMS_P1;PMS_P2;Temp;Humidity;BMP_temperature;BMP_pressure;BME280_temperature;BME280_humidity;BME280_pressure;Samples;Min_cycle;Max_cycle;Signal;HPM_P1;HPM_P2
2022/02/17 00:01:08;;;;;;;0.30;0.30;;;12.90;97.90;;;12.39;66.28;96323.22;6234453;23;20027;-40
2022/02/17 00:03:36;;;;;;;0.10;0.10;;;12.90;96.70;;;12.46;66.15;96314.38;6233633;23;20020;-40
2022/02/17 00:06:04;;;;;;;0.30;0.30;;;12.90;96.40;;;12.39;65.87;96322.41;6235821;23;20016;-40
2022/02/17 00:08:32;;;;;;;2.05;0.32;;;12.90;94.20;;;12.44;65.32;96332.47;6236275;23;20038;-40
2022/02/17 00:11:00;;;;;;;0.20;0.20;;;12.90;94.20;;;12.38;65.50;96320.75;6234564;23;20030;-40
2022/02/17 00:13:29;;;;;;;0.45;0.40;;;12.90;93.60;;;12.40;65.89;96311.50;6234721;23;20016;-40
2022/02/17 00:15:58;;;;;;;0.28;0.28;;;12.90;93.50;;;12.36;66.30;96298.78;6232962;23;20024;-40
2022/02/17 00:18:26;;;;;;;0.20;0.20;;;12.90;94.00;;;12.41;66.08;96304.34;6234581;23;20032;-40
2022/02/17 00:20:58;;;;;;;0.17;0.13;;;12.90;94.00;;;12.39;66.59;96277.84;6235066;23;20020;-41
2022/02/17 00:23:27;;;;;;;0.30;0.30;;;12.90;95.30;;;12.36;66.61;96275.56;6219110;23;20229;-40
2022/02/17 00:25:56;;;;;;;0.20;0.20;;;12.90;94.90;;;12.35;66.66;96268.63;6236181;23;20024;-40
2022/02/17 00:28:24;;;;;;;0.20;0.20;;;12.80;95.00;;;12.34;66.92;96285.66;6235466;23;20050;-40
2022/02/17 00:30:52;;;;;;;0.20;0.20;;;12.80;95.20;;;12.32;66.95;96289.56;6208745;23;20042;-40
2022/02/17 00:33:20;;;;;;;0.13;0.13;;;12.70;96.00;;;12.35;67.24;96271.28;6235643;23;20023;-39
2022/02/17 00:35:49;;;;;;;0.43;0.25;;;12.80;96.20;;;12.30;67.59;96286.28;6234678;23;20050;-40
2022/02/17 00:38:16;;;;;;;0.20;0.20;;;12.70;97.00;;;12.27;68.45;96308.00;6234800;23;20012;-39
2022/02/17 00:40:44;;;;;;;0.75;0.55;;;12.70;99.20;;;12.24;69.07;96333.25;6235171;23;20326;-40
2022/02/17 00:43:15;;;;;;;0.20;0.20;;;12.60;99.90;;;12.14;69.50;96300.84;6233544;23;20024;-39
2022/02/17 00:45:44;;;;;;;0.10;0.10;;;12.60;99.90;;;12.12;69.59;96305.56;6208091;23;20024;-39
2022/02/17 00:48:11;;;;;;;0.10;0.10;;;12.50;99.90;;;12.12;69.69;96295.69;6235384;23;20027;-39
2022/02/17 00:50:40;;;;;;;0.20;0.20;;;12.50;99.90;;;12.11;69.89;96363.41;6208289;23;20042;-40
2022/02/17 00:53:08;;;;;;;0.20;0.20;;;12.50;99.90;;;12.05;70.76;96294.06;6235772;23;20401;-40
2022/02/17 00:55:36;;;;;;;0.30;0.20;;;12.50;99.90;;;12.00;71.66;96279.47;6233539;23;20024;-39
2022/02/17 00:58:05;;;;;;;0.43;0.30;;;12.40;99.90;;;11.90;72.26;96297.69;6209475;23;20034;-40
2022/02/17 01:00:35;;;;;;;0.32;0.20;;;12.30;99.90;;;11.82;72.86;96281.88;6209090;23;20034;-40
2022/02/17 01:03:11;;;;;;;0.60;0.32;;;12.30;99.90;;;11.79;72.99;96268.97;6234563;23;20027;-40
2022/02/17 01:05:40;;;;;;;0.55;0.22;;;12.20;99.90;;;11.75;73.03;96287.19;6234836;23;20028;-40
2022/02/17 01:08:08;;;;;;;0.47;0.30;;;12.10;99.90;;;11.79;72.66;96298.28;6234529;23;20012;-40
2022/02/17 01:10:35;;;;;;;0.17;0.17;;;12.10;99.90;;;11.77;73.21;96303.81;6235063;23;20042;-40
2022/02/17 01:13:04;;;;;;;0.17;0.17;;;12.10;99.90;;;11.74;73.24;96325.53;6234913;23;20012;-40
2022/02/17 01:15:32;;;;;;;0.20;0.20;;;12.00;99.90;;;11.78;73.02;96309.97;6209230;23;20016;-40
2022/02/17 01:18:01;;;;;;;0.38;0.32;;;12.10;99.90;;;11.72;73.57;96321.44;6236337;23;20026;-40
2022/02/17 01:20:35;;;;;;;0.52;0.30;;;12.00;99.90;;;11.68;73.22;96288.19;6233451;23;20016;-40
2022/02/17 01:23:03;;;;;;;0.30;0.30;;;12.00;99.90;;;11.72;73.32;96268.94;6210608;23;20030;-40
2022/02/17 01:25:33;;;;;;;0.20;0.20;;;12.00;99.90;;;11.69;73.10;96285.34;6211044;23;20030;-39
2022/02/17 01:28:02;;;;;;;0.40;0.40;;;12.00;99.90;;;11.70;73.21;96283.50;6210518;23;20050;-40
2022/02/17 01:30:31;;;;;;;0.25;0.20;;;12.00;99.90;;;11.71;73.34;96296.63;6210943;23;20026;-40
2022/02/17 01:32:59;;;;;;;0.20;0.20;;;12.00;99.90;;;11.69;73.42;96281.84;6210349;23;20203;-40
2022/02/17 01:35:27;;;;;;;0.20;0.20;;;12.00;99.90;;;11.68;73.61;96296.19;6210562;23;20024;-40
2022/02/17 01:38:04;;;;;;;1.45;0.20;;;12.00;99.90;;;11.70;73.47;96294.16;6211370;23;20030;-40
2022/02/17 01:40:35;;;;;;;1.02;0.30;;;11.90;99.90;;;11.60;73.51;96284.69;6209048;23;20016;-40
2022/02/17 01:43:05;;;;;;;0.32;0.30;;;11.90;99.90;;;11.60;74.01;96294.53;6247046;23;20027;-40
2022/02/17 01:45:34;;;;;;;0.10;0.10;;;11.90;99.90;;;11.63;73.86;96286.13;6237052;23;20020;-40
2022/02/17 01:48:02;;;;;;;0.20;0.20;;;11.90;99.90;;;11.58;74.26;96283.25;6236986;23;20030;-40
2022/02/17 01:50:40;;;;;;;0.15;0.15;;;11.90;99.90;;;11.60;74.04;96275.88;6245907;23;20206;-39
2022/02/17 01:53:11;;;;;;;0.30;0.20;;;11.90;99.90;;;11.53;74.51;96313.16;6236427;23;20030;-40
2022/02/17 01:55:43;;;;;;;0.30;0.30;;;11.80;99.90;;;11.49;74.66;96309.25;6208015;23;20043;-40
2022/02/17 01:58:14;;;;;;;0.65;0.20;;;11.80;99.90;;;11.41;75.34;96312.09;6211356;23;20079;-40
2022/02/17 02:00:43;;;;;;;0.28;0.28;;;11.80;99.90;;;11.45;74.83;96305.34;6208531;23;20024;-40
2022/02/17 02:03:13;;;;;;;0.45;0.30;;;11.70;99.90;;;11.44;74.79;96290.38;6237205;23;20022;-39
2022/02/17 02:05:56;;;;;;;0.65;0.38;;;11.70;99.90;;;11.40;75.51;96305.94;6235771;23;20034;-40
2022/02/17 02:08:28;;;;;;;0.28;0.15;;;11.70;99.90;;;11.44;75.30;96298.38;6209219;23;20026;-40
2022/02/17 02:10:57;;;;;;;0.32;0.30;;;11.70;99.90;;;11.47;75.37;96291.81;6184991;23;20028;-40
2022/02/17 02:13:24;;;;;;;0.40;0.30;;;11.70;99.90;;;11.48;75.05;96282.81;6208222;23;20020;-40
2022/02/17 02:15:54;;;;;;;0.30;0.20;;;11.70;99.90;;;11.41;75.56;96304.91;6185175;23;20325;-40
2022/02/17 02:18:23;;;;;;;1.45;0.57;;;11.70;99.90;;;11.40;75.58;96284.63;6208151;23;20024;-40
2022/02/17 02:20:57;;;;;;;0.20;0.20;;;11.70;99.90;;;11.39;75.40;96290.97;6209458;23;20031;-40
2022/02/17 02:23:33;;;;;;;0.60;0.20;;;11.70;99.90;;;11.38;75.30;96277.84;6208695;23;20341;-40
2022/02/17 02:26:04;;;;;;;0.20;0.20;;;11.60;99.90;;;11.44;75.10;96274.41;6208838;23;20024;-40
2022/02/17 02:28:34;;;;;;;0.13;0.13;;;11.60;99.90;;;11.42;75.55;96274.59;6237232;23;20023;-40
2022/02/17 02:31:04;;;;;;;0.95;0.40;;;11.70;99.90;;;11.40;75.70;96276.63;6183172;23;20028;-40
2022/02/17 02:33:32;;;;;;;0.28;0.28;;;11.60;99.90;;;11.41;75.81;96288.94;6210108;23;20024;-40
2022/02/17 02:36:01;;;;;;;0.52;0.40;;;11.60;99.90;;;11.39;75.70;96276.84;6236734;23;20030;-40
2022/02/17 02:38:49;;;;;;;0.30;0.30;;;11.60;99.90;;;11.38;75.75;96268.03;6209447;23;20024;-40
2022/02/17 02:41:21;;;;;;;0.30;0.30;;;11.60;99.90;;;11.41;75.85;96283.59;6208711;23;20024;-40
2022/02/17 02:43:52;;;;;;;0.30;0.30;;;11.60;99.90;;;11.45;75.10;96244.06;6209924;23;20205;-40
2022/02/17 02:46:20;;;;;;;1.05;0.52;;;11.60;99.90;;;11.39;76.10;96244.84;6209446;23;20024;-40
2022/02/17 02:48:52;;;;;;;0.30;0.30;;;11.60;99.90;;;11.40;76.22;96254.50;6209784;23;20034;-40
2022/02/17 02:51:20;;;;;;;0.20;0.20;;;11.60;99.90;;;11.45;75.37;96248.56;6236641;23;20478;-40
2022/02/17 02:53:48;;;;;;;0.22;0.22;;;11.60;99.90;;;11.47;75.76;96247.34;6234864;23;20020;-40
2022/02/17 02:56:16;;;;;;;0.32;0.30;;;11.70;99.90;;;11.43;75.82;96270.91;6209131;23;20026;-40
2022/02/17 02:58:44;;;;;;;0.85;0.50;;;11.70;99.90;;;11.45;75.97;96248.56;6210126;23;20016;-40
2022/02/17 03:01:12;;;;;;;0.30;0.30;;;11.70;99.90;;;11.46;75.60;96256.38;6209535;23;20318;-40
2022/02/17 03:03:48;;;;;;;0.10;0.10;;;11.70;99.90;;;11.50;75.36;96240.81;6245199;23;20321;-40
2022/02/17 03:06:20;;;;;;;1.48;0.32;;;11.70;99.90;;;11.49;75.69;96249.81;6185252;23;20024;-40
2022/02/17 03:08:47;;;;;;;0.40;0.40;;;11.70;99.90;;;11.50;75.30;96228.28;6218923;23;20022;-40
2022/02/17 03:11:24;;;;;;;0.20;0.20;;;11.70;99.90;;;11.54;75.55;96224.19;6209981;23;20034;-40
2022/02/17 03:13:51;;;;;;;1.75;0.20;;;11.70;99.90;;;11.53;75.23;96217.22;6183806;23;20028;-39
2022/02/17 03:16:20;;;;;;;0.20;0.20;;;11.70;99.90;;;11.50;75.87;96240.81;6207711;23;20036;-40
2022/02/17 03:18:48;;;;;;;1.07;0.20;;;11.70;99.90;;;11.40;75.88;96230.53;6206846;23;20319;-40
2022/02/17 03:21:16;;;;;;;0.20;0.20;;;11.70;99.90;;;11.47;75.57;96235.88;6210317;23;20022;-40
2022/02/17 03:23:45;;;;;;;0.32;0.32;;;11.80;99.90;;;11.49;75.88;96239.97;6234516;23;20199;-40
2022/02/17 03:26:19;;;;;;;0.20;0.20;;;11.80;99.90;;;11.48;76.08;96233.00;6210013;23;20016;-39
2022/02/17 03:28:55;;;;;;;0.20;0.20;;;11.80;99.90;;;11.47;75.67;96239.34;6208677;23;20023;-40
2022/02/17 03:31:24;;;;;;;0.20;0.20;;;11.80;99.90;;;11.47;75.57;96226.00;6208201;23;20020;-39
2022/02/17 03:33:57;;;;;;;0.20;0.20;;;11.80;99.90;;;11.49;75.71;96229.31;6208895;23;20245;-39
2022/02/17 03:36:26;;;;;;;0.20;0.20;;;11.90;99.90;;;11.55;75.45;96227.69;6208093;23;20019;-40
2022/02/17 03:39:00;;;;;;;0.20;0.20;;;11.90;99.90;;;11.53;74.92;96232.38;6206704;23;20332;-40
2022/02/17 03:41:52;;;;;;;0.20;0.20;;;11.90;99.90;;;11.60;74.63;96220.72;6233811;23;20255;-40
2022/02/17 03:44:26;;;;;;;0.20;0.20;;;12.00;99.90;;;11.62;74.21;96231.19;6208195;23;20023;-40
2022/02/17 03:47:05;;;;;;;0.22;0.20;;;12.00;99.90;;;11.70;73.96;96223.00;6208971;23;20023;-40
2022/02/17 03:50:04;;;;;;;0.20;0.20;;;12.10;99.90;;;11.73;73.33;96275.91;6217589;23;20020;-40
2022/02/17 03:52:35;;;;;;;0.10;0.10;;;12.20;99.90;;;11.82;72.97;96239.19;6208178;23;20016;-40
2022/02/17 03:55:15;;;;;;;0.10;0.10;;;12.30;99.90;;;11.85;72.25;96212.16;6208218;23;20067;-40
2022/02/17 03:57:46;;;;;;;0.10;0.10;;;12.30;99.90;;;11.92;71.59;96225.50;6208584;23;20024;-40
2022/02/17 04:00:17;;;;;;;0.10;0.10;;;12.40;99.90;;;12.01;71.93;96229.63;6206476;23;20234;-40
2022/02/17 04:02:45;;;;;;;0.10;0.10;;;12.50;99.90;;;12.02;71.12;96229.41;6244007;23;20031;-40
2022/02/17 04:05:19;;;;;;;0.05;0.05;;;12.50;99.90;;;12.01;70.65;96234.94;6208627;23;20016;-40
2022/02/17 04:07:47;;;;;;;0.20;0.20;;;12.50;99.90;;;12.10;71.06;96312.94;6208968;23;20034;-40
2022/02/17 04:10:22;;;;;;;0.20;0.20;;;12.60;99.90;;;12.16;70.80;96266.78;6206762;23;20020;-40
2022/02/17 04:12:49;;;;;;;0.15;0.15;;;12.60;99.90;;;12.13;69.62;96262.66;6235085;23;20199;-40
2022/02/17 04:15:18;;;;;;;0.20;0.20;;;12.60;99.90;;;12.20;69.20;96233.31;6208869;23;20187;-40
2022/02/17 04:17:46;;;;;;;0.10;0.10;;;12.60;99.90;;;12.24;69.55;96265.75;6205622;23;20337;-40
2022/02/17 04:20:22;;;;;;;0.20;0.20;;;12.70;99.90;;;12.12;69.31;96255.69;6205179;23;20340;-40
2022/02/17 04:23:22;;;;;;;0.20;0.20;;;12.60;99.90;;;12.13;70.20;96259.97;6218631;23;20050;-40
2022/02/17 04:25:53;;;;;;;0.70;0.70;;;12.60;99.90;;;12.10;71.03;96275.59;6209105;23;20214;-40
2022/02/17 04:28:47;;;;;;;0.50;0.50;;;12.50;99.90;;;12.06;71.64;96269.84;6208167;23;20149;-40
2022/02/17 04:31:15;;;;;;;0.40;0.40;;;12.50;99.90;;;12.02;72.37;96292.63;6208462;23;20027;-40
2022/02/17 04:33:46;;;;;;;0.30;0.30;;;12.40;99.90;;;11.92;72.46;96274.34;6207614;23;20247;-40
2022/02/17 04:36:21;;;;;;;0.20;0.20;;;12.30;99.90;;;11.96;72.55;96275.56;6207734;23;20020;-40
2022/02/17 04:38:51;;;;;;;1.17;0.45;;;12.30;99.90;;;11.84;72.57;96285.16;6206628;23;20016;-40
2022/02/17 04:44:18;;;;;;;1.10;0.40;;;12.30;99.90;;;11.88;72.78;96298.91;6207813;23;20016;-40
2022/02/17 04:46:46;;;;;;;0.65;0.35;;;12.30;99.90;;;11.85;73.10;96289.47;6207652;23;20024;-40
2022/02/17 04:49:16;;;;;;;1.27;0.30;;;12.30;99.90;;;11.86;73.17;96317.75;6208755;23;20028;-40
2022/02/17 04:51:43;;;;;;;0.30;0.30;;;12.20;99.90;;;11.82;73.47;96308.53;6233870;23;20020;-40
2022/02/17 04:54:17;;;;;;;;;;;12.20;99.90;;;11.72;73.73;96322.25;6209561;23;20034;-40
2022/02/17 04:56:47;;;;;;;0.35;0.22;;;12.10;99.90;;;11.75;73.86;96295.19;6233948;23;19926;-40
2022/02/17 04:59:15;;;;;;;0.20;0.20;;;12.10;99.90;;;11.78;73.56;96313.44;6208018;23;20016;-41
2022/02/17 05:01:46;;;;;;;0.90;0.50;;;12.10;99.90;;;11.78;73.81;96340.09;6207770;23;20030;-40
2022/02/17 05:04:45;;;;;;;0.20;0.20;;;12.10;99.90;;;11.71;74.51;96343.75;6207866;23;20314;-40
2022/02/17 05:07:18;;;;;;;0.32;0.32;;;12.00;99.90;;;11.67;75.24;96351.38;6209364;23;20210;-40
2022/02/17 05:09:46;;;;;;;0.93;0.50;;;11.90;99.90;;;11.52;75.66;96369.34;6234771;23;20027;-40
2022/02/17 05:12:14;;;;;;;0.30;0.30;;;11.70;99.90;;;11.35;76.68;96358.19;6234990;23;20200;-40
2022/02/17 05:14:41;;;;;;;0.30;0.30;;;11.50;99.90;;;11.25;77.96;96368.41;6206754;23;20026;-40
2022/02/17 05:17:13;;;;;;;0.40;0.40;;;11.40;99.90;;;11.23;77.52;96366.72;6209229;23;20336;-41
2022/02/17 05:19:41;;;;;;;1.67;0.60;;;11.40;99.90;;;11.18;77.87;96398.44;6207789;23;20203;-40
2022/02/17 05:22:29;;;;;;;0.53;0.40;;;11.30;99.90;;;11.00;78.91;96388.31;6198437;23;20204;-40
2022/02/17 05:25:35;;;;;;;0.80;0.40;;;11.20;99.90;;;10.94;79.14;96458.31;6151738;23;20021;-40
2022/02/17 05:28:20;;;;;;;0.40;0.40;;;11.10;99.90;;;10.78;80.70;96432.78;6140936;23;20028;-41
2022/02/17 05:31:16;;;;;;;0.30;0.30;;;11.10;99.90;;;10.71;80.54;96449.72;6215724;23;20032;-40
2022/02/17 05:34:04;;;;;;;1.90;0.60;;;11.00;99.90;;;10.52;80.42;96494.56;6219799;23;20032;-41
2022/02/17 05:36:53;;;;;;;3.03;1.13;;;10.80;99.90;;;10.24;79.59;96470.53;6220407;23;20042;-43
2022/02/17 05:39:49;;;;;;;4.83;1.03;;;10.60;99.90;;;10.12;80.32;96467.53;6207577;23;20322;-42
2022/02/17 05:42:19;;;;;;;3.47;1.40;;;10.40;99.90;;;9.82;80.44;96464.91;6234189;23;20214;-41
2022/02/17 05:44:47;;;;;;;4.33;1.77;;;10.20;99.90;;;9.75;80.40;96448.06;6233787;23;20020;-42
2022/02/17 05:47:15;;;;;;;3.60;1.80;;;10.10;99.90;;;9.55;81.18;96460.25;6235589;23;20020;-45
2022/02/17 05:49:43;;;;;;;5.77;1.73;;;10.00;99.90;;;9.46;81.29;96489.56;6234150;23;20022;-42
2022/02/17 05:52:11;;;;;;;5.03;1.67;;;9.90;99.90;;;9.34;80.80;96484.88;6233527;23;20016;-44
2022/02/17 05:54:38;;;;;;;6.10;1.83;;;9.80;99.90;;;9.33;81.58;96477.94;6233518;23;20051;-41
2022/02/17 05:57:06;;;;;;;4.30;1.80;;;9.80;99.90;;;9.30;81.51;96488.91;6236352;23;20022;-40
2022/02/17 05:59:34;;;;;;;4.63;1.40;;;9.80;99.90;;;9.29;80.98;96513.84;6236534;23;20222;-40
2022/02/17 06:02:02;;;;;;;3.47;1.60;;;9.80;99.90;;;9.26;80.91;96512.34;6235239;23;20016;-40
2022/02/17 06:04:30;;;;;;;3.83;1.73;;;9.80;99.90;;;9.27;80.93;96514.81;6235167;23;20019;-40
2022/02/17 06:06:58;;;;;;;9.03;1.90;;;9.80;99.90;;;9.33;80.53;96500.00;6237413;23;20026;-40
2022/02/17 06:09:26;;;;;;;4.67;1.33;;;9.80;99.90;;;9.26;80.33;96497.22;6233867;23;20047;-39
2022/02/17 06:11:53;;;;;;;5.77;1.63;;;9.80;99.90;;;9.32;80.03;96510.78;6235771;23;20027;-40
2022/02/17 06:14:21;;;;;;;11.47;3.00;;;9.80;99.90;;;9.33;80.31;96520.44;6235648;23;20016;-41
2022/02/17 06:16:49;;;;;;;5.77;2.00;;;9.80;99.90;;;9.34;80.03;96532.69;6237641;23;20059;-40
2022/02/17 06:19:17;;;;;;;5.20;1.97;;;9.80;99.90;;;9.34;79.63;96530.03;6236412;23;20020;-40
2022/02/17 06:21:44;;;;;;;7.63;2.50;;;9.80;99.90;;;9.36;79.64;96531.50;6236436;23;20340;-41
2022/02/17 06:24:12;;;;;;;4.33;2.03;;;9.80;99.90;;;9.34;79.24;96528.19;6237224;23;20012;-40
2022/02/17 06:26:40;;;;;;;4.97;2.40;;;9.90;99.90;;;9.39;79.16;96517.03;6235817;23;20023;-40
2022/02/17 06:29:08;;;;;;;5.03;2.10;;;9.80;99.90;;;9.46;78.81;96516.13;6235782;23;20016;-40
2022/02/17 06:31:35;;;;;;;7.73;1.83;;;9.90;99.90;;;9.41;77.82;96521.16;6235660;23;20016;-40
2022/02/17 06:34:03;;;;;;;3.37;1.30;;;10.00;99.90;;;9.40;77.67;96579.78;6234916;23;20016;-42
2022/02/17 06:36:31;;;;;;;6.77;1.50;;;10.00;99.90;;;9.43;77.68;96556.34;6233865;23;20035;-40
2022/02/17 06:38:59;;;;;;;4.77;1.40;;;9.90;99.90;;;9.42;77.80;96561.81;6235137;23;20026;-40
2022/02/17 06:41:28;;;;;;;5.50;1.57;;;9.90;99.90;;;9.43;76.92;96558.19;6236796;23;20036;-40
2022/02/17 06:43:56;;;;;;;3.47;1.60;;;10.00;99.90;;;9.48;76.75;96563.78;6235202;23;20043;-39
2022/02/17 06:46:24;;;;;;;8.73;2.87;;;10.00;99.90;;;9.42;75.55;96561.81;6210416;23;20350;-39
2022/02/17 06:48:52;;;;;;;7.13;2.67;;;10.10;99.90;;;9.49;75.65;96570.72;6235505;23;20344;-39
2022/02/17 06:51:20;;;;;;;4.20;1.83;;;10.10;99.90;;;9.51;75.26;96570.56;6235326;23;20020;-40
2022/02/17 06:53:48;;;;;;;4.93;1.53;;;10.20;99.90;;;9.55;74.88;96572.66;6234429;23;20016;-41
2022/02/17 06:56:15;;;;;;;2.40;1.70;;;10.20;99.90;;;9.61;74.82;96633.06;6234210;23;20016;-40
2022/02/17 06:58:44;;;;;;;6.00;1.80;;;10.20;99.90;;;9.64;74.19;96594.69;6235899;23;20293;-40
2022/02/17 07:01:13;;;;;;;3.90;2.10;;;10.30;99.90;;;9.73;74.81;96614.88;6236923;23;20027;-40
2022/02/17 07:03:40;;;;;;;11.13;2.10;;;10.30;99.90;;;9.69;74.11;96608.22;6209544;23;20012;-39
2022/02/17 07:06:08;;;;;;;7.80;2.73;;;10.30;99.90;;;9.68;73.48;96624.38;6234447;23;20012;-39
2022/02/17 07:08:37;;;;;;;6.27;1.93;;;10.30;99.90;;;9.76;73.43;96617.13;6236007;23;20031;-40
2022/02/17 07:11:08;;;;;;;6.67;2.37;;;10.30;99.90;;;9.77;72.72;96626.78;6245374;23;20209;-40
2022/02/17 07:13:36;;;;;;;7.53;2.03;;;10.30;99.90;;;9.72;71.73;96623.00;6235003;23;20022;-40
2022/02/17 07:16:04;;;;;;;5.70;2.00;;;10.30;99.90;;;9.73;70.58;96637.94;6234829;23;20028;-39
2022/02/17 07:18:32;;;;;;;10.03;2.00;;;10.20;99.90;;;9.69;71.16;96649.94;6235300;23;20214;-40
2022/02/17 07:21:00;;;;;;;6.93;2.30;;;10.30;99.90;;;9.59;69.64;96651.00;6206154;23;20026;-40
2022/02/17 07:23:29;;;;;;;8.73;2.00;;;10.30;99.90;;;9.67;70.07;96636.81;6235667;23;20159;-39
2022/02/17 07:25:56;;;;;;;6.97;2.10;;;10.20;99.90;;;9.59;69.66;96631.59;6234982;23;20019;-39
2022/02/17 07:28:26;;;;;;;5.30;1.97;;;10.30;99.90;;;9.63;70.17;96632.88;6235571;23;20213;-40
2022/02/17 07:30:55;;;;;;;5.83;1.90;;;10.20;99.90;;;9.62;69.44;96636.56;6233631;23;20298;-39
2022/02/17 07:33:25;;;;;;;8.10;2.00;;;10.20;99.90;;;9.58;68.81;96667.16;6233301;23;20050;-39
2022/02/17 07:35:52;;;;;;;5.73;2.07;;;10.20;99.90;;;9.49;68.30;96661.06;6234749;23;20034;-39
2022/02/17 07:38:40;;;;;;;5.93;1.70;;;10.20;99.90;;;9.53;68.42;96702.22;6245140;23;20321;-39
2022/02/17 07:41:08;;;;;;;6.27;2.07;;;10.20;99.90;;;9.51;67.90;96690.13;6235947;23;20391;-38
2022/02/17 07:43:36;;;;;;;7.53;1.80;;;10.20;99.90;;;9.61;66.31;96664.94;6209369;23;20402;-38
2022/02/17 07:46:04;;;;;;;5.97;2.23;;;10.30;99.90;;;9.79;67.24;96677.94;6234236;23;20016;-38
2022/02/17 07:48:34;;;;;;;7.17;1.93;;;10.40;99.90;;;9.78;66.63;96681.59;6235576;23;20023;-38
2022/02/17 07:51:02;;;;;;;7.57;2.33;;;10.40;99.90;;;9.90;66.43;96679.31;6234164;23;20028;-38
2022/02/17 07:53:31;;;;;;;9.57;2.50;;;10.50;99.90;;;9.90;66.49;96650.06;6235758;23;20132;-38
2022/02/17 07:56:00;;;;;;;7.73;2.03;;;10.50;99.90;;;9.84;64.94;96669.41;6234646;23;20266;-38
2022/02/17 07:58:28;;;;;;;6.70;1.90;;;10.40;99.90;;;9.85;65.27;96644.47;6235592;23;20034;-39
2022/02/17 08:00:56;;;;;;;6.13;2.40;;;10.40;99.90;;;9.81;64.13;96678.56;6234672;23;20020;-40
2022/02/17 08:03:24;;;;;;;7.77;1.80;;;10.40;99.90;;;9.92;64.92;96695.09;6234880;23;20020;-39
2022/02/17 08:05:52;;;;;;;5.57;1.70;;;10.50;99.90;;;9.91;64.31;96712.06;6236122;23;20012;-39
2022/02/17 08:08:37;;;;;;;6.60;2.80;;;10.50;99.90;;;9.99;65.32;96710.13;6245961;23;20012;-39
2022/02/17 08:11:05;;;;;;;8.50;3.23;;;10.40;99.90;;;10.06;64.09;96704.91;6234970;23;20030;-40
2022/02/17 08:13:33;;;;;;;8.33;2.27;;;10.50;99.80;;;10.10;64.13;96716.03;6234117;23;20027;-40
2022/02/17 08:16:01;;;;;;;7.37;2.13;;;10.50;98.40;;;10.16;63.44;96720.66;6234967;23;20019;-39
2022/02/17 08:18:28;;;;;;;6.27;2.07;;;10.60;96.10;;;10.24;64.44;96726.69;6235214;23;20028;-38
2022/02/17 08:20:59;;;;;;;9.70;2.23;;;10.70;98.50;;;10.22;63.66;96770.44;6233787;23;20020;-38
2022/02/17 08:23:30;;;;;;;5.10;1.93;;;10.80;95.50;;;10.24;63.53;96755.97;6233177;23;20016;-38
2022/02/17 08:26:00;;;;;;;5.27;1.80;;;10.80;95.00;;;10.30;63.76;96743.78;6234592;23;20039;-39
2022/02/17 08:28:28;;;;;;;7.17;2.63;;;10.80;93.60;;;10.35;63.29;96741.44;6234977;23;20021;-39
2022/02/17 08:30:56;;;;;;;9.87;2.83;;;10.90;93.00;;;10.32;61.75;96765.72;6234372;23;20030;-38
2022/02/17 08:33:24;;;;;;;11.97;3.27;;;10.90;87.50;;;10.31;61.11;96732.13;6234398;23;20026;-38
2022/02/17 08:35:52;;;;;;;9.80;2.20;;;10.80;86.50;;;10.19;59.05;96750.34;6242546;23;20016;-39
2022/02/17 08:38:31;;;;;;;11.43;2.50;;;10.70;79.00;;;10.11;57.71;96763.72;6245302;23;20016;-38
2022/02/17 08:41:00;;;;;;;4.23;1.57;;;10.70;73.20;;;10.10;56.36;96772.72;6242308;23;20191;-38
2022/02/17 08:43:28;;;;;;;7.20;2.87;;;10.70;71.60;;;10.04;56.84;96781.38;6235497;23;20024;-38
2022/02/17 08:45:57;;;;;;;14.00;3.17;;;10.60;71.20;;;9.96;55.57;96766.31;6234246;23;20034;-38
2022/02/17 08:48:27;;;;;;;6.47;2.47;;;10.60;69.60;;;9.92;55.25;96793.47;6235032;23;20022;-38
2022/02/17 08:51:04;;;;;;;10.73;2.77;;;10.50;68.50;;;9.90;55.38;96783.00;6243395;23;20302;-38
2022/02/17 08:53:32;;;;;;;12.30;4.77;;;10.50;68.80;;;9.91;55.94;96784.66;6242632;23;20019;-38
2022/02/17 08:56:00;;;;;;;8.10;3.10;;;10.50;69.20;;;9.93;55.79;96763.22;6233411;23;20023;-38
2022/02/17 08:58:29;;;;;;;13.00;2.53;;;10.50;68.20;;;9.85;54.01;96780.06;6246019;23;20027;-38
2022/02/17 09:00:59;;;;;;;8.50;3.07;;;10.50;65.10;;;9.90;54.37;96788.31;6232862;23;20012;-38
2022/02/17 09:03:29;;;;;;;13.10;3.47;;;10.50;66.10;;;9.89;55.01;96809.75;6243859;23;20012;-38
2022/02/17 09:05:57;;;;;;;9.70;2.20;;;10.50;66.50;;;9.94;54.64;96799.44;6234299;23;20012;-38
2022/02/17 09:08:43;;;;;;;11.43;3.33;;;10.50;65.90;;;9.96;54.73;96806.22;6244838;23;20504;-38
2022/02/17 09:11:12;;;;;;;9.63;3.20;;;10.50;65.60;;;9.92;54.48;96865.25;6234312;23;20024;-38
2022/02/17 09:13:40;;;;;;;7.47;2.40;;;10.60;65.10;;;10.00;54.24;96831.47;6232420;23;20271;-39
2022/02/17 09:16:09;;;;;;;10.13;2.53;;;10.60;65.20;;;9.98;54.38;96824.66;6233469;23;20024;-38
2022/02/17 09:18:38;;;;;;;10.93;2.90;;;10.60;64.80;;;10.10;55.08;96819.75;6232877;23;20030;-38
2022/02/17 09:21:06;;;;;;;12.53;2.70;;;10.60;65.40;;;10.12;54.91;96826.56;6234224;23;20016;-38
2022/02/17 09:23:34;;;;;;;13.27;3.03;;;10.60;66.10;;;10.18;54.85;96820.53;6235239;23;20017;-38
2022/02/17 09:26:08;;;;;;;11.50;4.13;;;10.70;65.90;;;10.07;54.13;96842.22;6234819;23;20027;-39
2022/02/17 09:28:36;;;;;;;13.50;3.58;;;10.60;64.50;;;9.98;53.37;96844.13;6245388;23;20066;-39
2022/02/17 09:31:04;;;;;;;12.60;3.97;;;10.60;63.50;;;10.05;53.31;96857.53;6234905;23;20016;-38
2022/02/17 09:33:32;;;;;;;8.50;3.37;;;10.50;63.10;;;10.05;54.31;96842.38;6235932;23;20020;-38
2022/02/17 09:35:59;;;;;;;8.05;3.50;;;10.60;64.90;;;10.07;55.01;96863.47;6237242;23;20412;-38
2022/02/17 09:38:32;;;;;;;11.57;3.90;;;10.50;66.00;;;9.87;53.12;96860.47;6246476;23;20214;-39
2022/02/17 09:41:08;;;;;;;11.10;3.47;;;10.40;62.50;;;9.83;53.38;96861.81;6236893;23;20020;-38
2022/02/17 09:43:38;;;;;;;8.67;4.10;;;10.40;62.70;;;9.93;53.02;96846.47;6245882;23;20309;-38
2022/02/17 09:46:06;;;;;;;16.87;3.37;;;10.40;62.30;;;9.85;52.59;96859.81;6234862;23;20355;-38
2022/02/17 09:48:36;;;;;;;14.90;3.40;;;10.40;62.20;;;9.84;53.67;96843.00;6235380;23;20012;-39
2022/02/17 09:51:07;;;;;;;12.40;3.97;;;10.30;63.60;;;9.84;54.10;96866.13;6245883;23;20015;-39
2022/02/17 09:53:36;;;;;;;14.53;3.07;;;10.30;63.70;;;9.84;53.44;96863.47;6233677;23;20027;-38
2022/02/17 09:56:06;;;;;;;12.87;3.50;;;10.30;62.90;;;9.84;52.83;96874.09;6235707;23;20092;-38
2022/02/17 09:58:35;;;;;;;11.90;4.23;;;10.40;61.30;;;9.91;52.30;96871.59;6235313;23;20028;-39
2022/02/17 10:01:04;;;;;;;12.77;3.83;;;10.50;60.80;;;9.92;52.04;96874.03;6235958;23;20038;-38
2022/02/17 10:03:37;;;;;;;14.97;4.30;;;10.50;60.40;;;10.01;53.54;96870.34;6236224;23;20019;-38
2022/02/17 10:06:24;;;;;;;9.82;3.03;;;10.50;62.00;;;10.03;52.22;96897.56;6246794;23;20230;-39
2022/02/17 10:08:52;;;;;;;15.57;4.10;;;10.60;60.70;;;10.02;52.53;96869.34;6235810;23;20019;-38
2022/02/17 10:11:30;;;;;;;7.87;2.83;;;10.60;60.80;;;10.05;52.70;96876.94;6237078;23;20016;-38
2022/02/17 10:14:15;;;;;;;11.10;4.20;;;10.60;61.80;;;10.11;52.28;96898.53;6236289;23;20207;-38
2022/02/17 10:17:06;;;;;;;13.20;3.57;;;10.60;60.60;;;10.10;52.27;96900.38;6245518;23;20016;-39
2022/02/17 10:19:40;;;;;;;9.20;3.70;;;10.60;60.80;;;10.10;52.28;96926.13;6235084;23;20020;-39
2022/02/17 10:22:13;;;;;;;15.63;3.33;;;10.60;61.10;;;10.14;51.12;96922.09;6232676;23;20023;-39
2022/02/17 10:24:47;;;;;;;14.97;3.67;;;10.70;59.50;;;10.18;51.49;96892.34;6220076;23;20028;-38
2022/02/17 10:27:21;;;;;;;11.47;3.03;;;10.80;59.50;;;10.24;51.48;96920.06;6235640;23;20024;-39
2022/02/17 10:30:09;;;;;;;12.45;2.85;;;10.80;59.70;;;10.24;51.26;96918.22;6235450;23;20023;-38
2022/02/17 10:32:54;;;;;;;12.47;3.07;;;10.80;59.40;;;10.32;52.00;96917.38;6236379;23;20020;-38
2022/02/17 10:35:25;;;;;;;11.07;3.58;;;10.90;60.40;;;10.34;52.63;96918.03;6245516;23;20030;-38
2022/02/17 10:37:56;;;;;;;9.37;2.33;;;10.90;61.30;;;10.38;53.81;96916.66;6235103;23;20207;-39
2022/02/17 10:40:33;;;;;;;7.85;2.70;;;10.90;63.60;;;10.41;53.25;96926.09;6246528;23;20023;-38